createdAt,value
2019-02-10T00:02:20.174Z,97404.22
2019-02-10T00:04:50.453Z,97397.78
2019-02-10T00:07:20.570Z,97388.23
2019-02-10T00:09:50.842Z,97384.98
2019-02-10T00:12:21.040Z,97385.11
2019-02-10T00:14:51.254Z,97391.16
2019-02-10T00:17:21.388Z,97383.16
2019-02-10T00:19:51.549Z,97384.21
2019-02-10T00:22:21.775Z,97378.73
2019-02-10T00:24:51.968Z,97379.60
2019-02-10T00:27:22.089Z,97378.63
2019-02-10T00:29:52.285Z,97377.20
2019-02-10T00:32:22.418Z,97362.92
2019-02-10T00:34:52.654Z,97366.68
2019-02-10T00:37:22.926Z,97359.83
2019-02-10T00:39:53.147Z,97359.09
2019-02-10T00:42:23.424Z,97355.81
2019-02-10T00:44:53.623Z,97350.69
2019-02-10T00:47:23.966Z,97350.44
2019-02-10T00:49:54.202Z,97351.08
2019-02-10T00:52:24.393Z,97348.10
2019-02-10T00:54:54.520Z,97355.17
2019-02-10T00:57:24.649Z,97340.98
2019-02-10T00:59:54.894Z,97326.88
2019-02-10T01:02:25.111Z,97321.66
2019-02-10T01:04:55.414Z,97321.84
2019-02-10T01:07:25.734Z,97311.50
2019-02-10T01:09:55.944Z,97309.08
2019-02-10T01:12:26.291Z,97315.80
2019-02-10T01:14:56.767Z,97316.38
2019-02-10T01:17:27.071Z,97317.98
2019-02-10T01:19:57.288Z,97321.14
2019-02-10T01:22:27.547Z,97318.31
2019-02-10T01:24:57.806Z,97316.62
2019-02-10T01:27:28.107Z,97306.52
2019-02-10T01:29:58.248Z,97297.09
2019-02-10T01:32:28.367Z,97292.36
2019-02-10T01:34:58.495Z,97295.64
2019-02-10T01:37:28.796Z,97284.17
2019-02-10T01:39:59.065Z,97277.63
2019-02-10T01:42:29.175Z,97273.59
2019-02-10T01:44:59.425Z,97276.83
2019-02-10T01:47:29.589Z,97262.79
2019-02-10T01:49:59.900Z,97261.72
2019-02-10T01:52:30.098Z,97256.05
2019-02-10T01:55:00.290Z,97252.78
2019-02-10T01:57:30.487Z,97248.86
2019-02-10T02:00:00.600Z,97231.33
2019-02-10T02:02:30.784Z,97230.53
2019-02-10T02:05:01.847Z,97224.84
2019-02-10T02:07:32.165Z,97218.08
2019-02-10T02:10:02.485Z,97206.66
2019-02-10T02:12:32.690Z,97204.02
2019-02-10T02:15:02.971Z,97195.97
2019-02-10T02:17:33.155Z,97194.13
2019-02-10T02:20:03.300Z,97182.02
2019-02-10T02:22:33.505Z,97183.16
2019-02-10T02:25:03.641Z,97171.81
2019-02-10T02:27:33.748Z,97159.80
2019-02-10T02:30:05.527Z,97158.89
2019-02-10T02:32:35.708Z,97150.17
2019-02-10T02:35:06.233Z,97140.23
2019-02-10T02:37:36.550Z,97137.33
2019-02-10T02:40:08.790Z,97131.23
2019-02-10T02:42:39.116Z,97140.23
2019-02-10T02:45:11.686Z,97130.58
2019-02-10T02:47:42.023Z,97124.70
2019-02-10T02:50:12.856Z,97127.23
2019-02-10T02:52:43.104Z,97115.45
2019-02-10T02:55:13.462Z,97110.97
2019-02-10T02:57:43.713Z,97095.91
2019-02-10T03:00:14.032Z,97090.23
2019-02-10T03:02:44.297Z,97083.08
2019-02-10T03:05:14.013Z,97076.17
2019-02-10T03:07:44.171Z,97071.73
2019-02-10T03:10:14.562Z,97063.47
2019-02-10T03:12:44.778Z,97056.12
2019-02-10T03:15:15.042Z,97053.70
2019-02-10T03:17:45.286Z,97055.25
2019-02-10T03:20:15.472Z,97041.97
2019-02-10T03:22:45.594Z,97036.06
2019-02-10T03:25:15.858Z,97035.43
2019-02-10T03:27:45.995Z,97018.54
2019-02-10T03:30:16.285Z,97013.25
2019-02-10T03:32:46.510Z,96999.42
2019-02-10T03:35:16.683Z,96982.66
2019-02-10T03:37:46.830Z,96984.17
2019-02-10T03:40:17.035Z,96965.16
2019-02-10T03:42:47.338Z,96957.12
2019-02-10T03:45:17.545Z,96955.31
2019-02-10T03:47:47.770Z,96958.28
2019-02-10T03:50:18.039Z,96952.48
2019-02-10T03:52:48.326Z,96948.51
2019-02-10T03:55:18.596Z,96948.36
2019-02-10T03:57:48.958Z,96948.48
2019-02-10T04:00:19.157Z,96939.63
2019-02-10T04:02:49.364Z,96935.41
2019-02-10T04:05:19.615Z,96928.77
2019-02-10T04:07:49.828Z,96932.88
2019-02-10T04:10:19.983Z,96933.48
2019-02-10T04:12:50.200Z,96926.92
2019-02-10T04:15:20.374Z,96924.69
2019-02-10T04:17:50.578Z,96932.77
2019-02-10T04:20:20.944Z,96938.66
2019-02-10T04:22:51.093Z,96923.97
2019-02-10T04:25:21.298Z,96908.53
2019-02-10T04:27:51.592Z,96885.75
2019-02-10T04:30:21.760Z,96874.28
2019-02-10T04:32:51.921Z,96860.52
2019-02-10T04:35:22.145Z,96863.67
2019-02-10T04:37:52.292Z,96872.23
2019-02-10T04:40:22.541Z,96872.62
2019-02-10T04:42:52.743Z,96876.58
2019-02-10T04:45:23.048Z,96867.90
2019-02-10T04:47:53.257Z,96862.09
2019-02-10T04:50:23.475Z,96859.14
2019-02-10T04:52:53.615Z,96857.32
2019-02-10T04:55:23.737Z,96846.30
2019-02-10T04:57:54.026Z,96854.03
2019-02-10T05:00:24.458Z,96847.63
2019-02-10T05:02:54.688Z,96841.00
2019-02-10T05:05:24.877Z,96835.50
2019-02-10T05:07:55.007Z,96831.92
2019-02-10T05:10:25.165Z,96831.22
2019-02-10T05:12:55.291Z,96825.43
2019-02-10T05:15:25.548Z,96809.92
2019-02-10T05:17:55.689Z,96798.70
2019-02-10T05:20:25.915Z,96803.06
2019-02-10T05:22:56.083Z,96803.20
2019-02-10T05:25:26.339Z,96796.07
2019-02-10T05:27:56.545Z,96789.27
2019-02-10T05:30:26.920Z,96770.67
2019-02-10T05:32:57.054Z,96763.63
2019-02-10T05:35:27.261Z,96754.53
2019-02-10T05:38:03.892Z,96738.67
2019-02-10T05:40:29.504Z,96742.20
2019-02-10T05:42:59.761Z,96746.37
2019-02-10T05:45:30.068Z,96746.44
2019-02-10T05:48:00.337Z,96749.17
2019-02-10T05:50:30.472Z,96748.59
2019-02-10T05:53:00.891Z,96739.24
2019-02-10T05:55:31.165Z,96741.22
2019-02-10T05:58:01.551Z,96738.22
2019-02-10T06:00:32.050Z,96726.37
2019-02-10T06:03:02.510Z,96722.33
2019-02-10T06:05:33.472Z,96717.78
2019-02-10T06:08:12.706Z,96710.66
2019-02-10T06:10:35.245Z,96706.75
2019-02-10T06:13:05.702Z,96695.71
2019-02-10T06:15:35.989Z,96696.81
2019-02-10T06:18:06.421Z,96693.34
2019-02-10T06:20:36.777Z,96683.22
2019-02-10T06:23:07.222Z,96675.12
2019-02-10T06:25:37.569Z,96675.07
2019-02-10T06:28:07.780Z,96671.38
2019-02-10T06:30:38.046Z,96676.91
2019-02-10T06:33:08.350Z,96680.42
2019-02-10T06:35:38.540Z,96677.20
2019-02-10T06:38:08.827Z,96674.08
2019-02-10T06:40:39.113Z,96672.70
2019-02-10T06:43:09.371Z,96674.78
2019-02-10T06:45:40.724Z,96689.38
2019-02-10T06:48:11.238Z,96674.05
2019-02-10T06:50:41.637Z,96676.78
2019-02-10T06:53:11.922Z,96676.80
2019-02-10T06:55:42.270Z,96675.29
2019-02-10T06:58:12.706Z,96672.02
2019-02-10T07:01:03.443Z,96668.15
2019-02-10T07:03:53.441Z,96661.06
2019-02-10T07:06:23.804Z,96647.26
2019-02-10T07:08:54.169Z,96645.76
2019-02-10T07:11:24.541Z,96638.89
2019-02-10T07:14:00.886Z,96623.48
2019-02-10T07:17:33.410Z,96627.26
2019-02-10T07:20:43.184Z,96621.12
2019-02-10T07:23:57.499Z,96614.17
2019-02-10T07:27:16.997Z,96609.64
2019-02-10T07:30:51.528Z,96599.36
2019-02-10T07:33:58.503Z,96587.74
2019-02-10T07:37:35.788Z,96563.59
2019-02-10T07:41:20.362Z,96554.59
2019-02-10T07:44:42.320Z,96532.31
2019-02-10T07:48:09.219Z,96537.34
2019-02-10T07:51:38.785Z,96526.80
2019-02-10T07:55:05.406Z,96528.12
2019-02-10T07:58:45.505Z,96517.54
2019-02-10T08:02:42.507Z,96492.42
2019-02-10T08:05:47.954Z,96502.30
2019-02-10T08:08:49.434Z,96486.11
2019-02-10T08:12:01.540Z,96489.03
2019-02-10T08:15:15.774Z,96473.91
2019-02-10T08:18:40.051Z,96472.05
2019-02-10T08:21:49.913Z,96473.66
2019-02-10T08:25:11.978Z,96464.64
2019-02-10T08:28:19.702Z,96456.15
2019-02-10T08:31:36.050Z,96454.81
2019-02-10T08:34:29.147Z,96449.73
2019-02-10T08:38:07.403Z,96443.90
2019-02-10T08:41:21.463Z,96447.57
2019-02-10T08:44:32.778Z,96431.09
2019-02-10T08:48:00.139Z,96431.63
2019-02-10T08:51:17.664Z,96427.66
2019-02-10T08:53:48.742Z,96422.34
2019-02-10T08:56:18.979Z,96431.31
2019-02-10T08:58:49.217Z,96408.52
2019-02-10T09:01:19.508Z,96406.61
2019-02-10T09:03:49.984Z,96402.94
2019-02-10T09:06:20.479Z,96383.56
2019-02-10T09:08:50.787Z,96387.75
2019-02-10T09:11:21.021Z,96378.02
2019-02-10T09:13:51.325Z,96376.35
2019-02-10T09:16:22.826Z,96360.53
2019-02-10T09:18:53.037Z,96344.44
2019-02-10T09:21:23.427Z,96336.02
2019-02-10T09:23:53.709Z,96340.58
2019-02-10T09:26:24.102Z,96333.31
2019-02-10T09:28:54.431Z,96336.66
2019-02-10T09:31:24.732Z,96330.05
2019-02-10T09:33:54.918Z,96320.87
2019-02-10T09:36:25.153Z,96316.06
2019-02-10T09:38:55.557Z,96301.59
2019-02-10T09:41:25.755Z,96306.19
2019-02-10T09:43:56.102Z,96298.36
2019-02-10T09:46:30.010Z,96291.27
2019-02-10T09:49:03.426Z,96285.30
2019-02-10T09:52:13.230Z,96283.09
2019-02-10T09:54:45.714Z,96278.02
2019-02-10T09:57:17.164Z,96271.69
2019-02-10T09:59:48.071Z,96264.56
2019-02-10T10:02:57.392Z,96238.28
2019-02-10T10:08:30.102Z,96236.09
2019-02-10T10:11:00.419Z,96237.22
2019-02-10T10:13:30.939Z,96237.88
2019-02-10T10:16:01.296Z,96232.84
2019-02-10T10:18:31.897Z,96225.66
2019-02-10T10:21:02.121Z,96215.22
2019-02-10T10:23:32.581Z,96215.76
2019-02-10T10:26:02.768Z,96200.66
2019-02-10T10:28:33.228Z,96209.48
2019-02-10T10:31:03.997Z,96216.07
2019-02-10T10:33:34.497Z,96198.20
2019-02-10T10:36:04.980Z,96211.63
2019-02-10T10:38:36.974Z,96198.46
2019-02-10T10:41:07.195Z,96191.63
2019-02-10T10:43:37.538Z,96186.95
2019-02-10T10:46:07.757Z,96190.29
2019-02-10T10:48:38.143Z,96172.38
2019-02-10T10:51:08.534Z,96186.28
2019-02-10T10:53:38.699Z,96162.46
2019-02-10T10:56:08.813Z,96151.10
2019-02-10T10:58:39.243Z,96156.03
2019-02-10T11:01:09.364Z,96145.64
2019-02-10T11:03:39.603Z,96138.06
2019-02-10T11:06:09.918Z,96125.48
2019-02-10T11:08:40.025Z,96137.30
2019-02-10T11:11:10.224Z,96117.98
2019-02-10T11:13:40.431Z,96125.85
2019-02-10T11:16:10.683Z,96113.06
2019-02-10T11:18:40.991Z,96106.15
2019-02-10T11:21:11.120Z,96108.69
2019-02-10T11:23:42.594Z,96115.50
2019-02-10T11:26:12.742Z,96092.77
2019-02-10T11:28:43.033Z,96084.37
2019-02-10T11:31:13.260Z,96079.98
2019-02-10T11:33:43.361Z,96078.55
2019-02-10T11:36:13.541Z,96070.70
2019-02-10T11:38:43.763Z,96066.81
2019-02-10T11:41:13.984Z,96072.59
2019-02-10T11:43:44.283Z,96050.43
2019-02-10T11:46:14.496Z,96053.20
2019-02-10T11:48:44.618Z,96043.88
2019-02-10T11:51:14.726Z,96051.06
2019-02-10T11:53:44.922Z,96045.06
2019-02-10T11:56:15.067Z,96041.20
2019-02-10T11:58:45.149Z,96031.37
2019-02-10T12:01:15.405Z,96049.03
2019-02-10T12:03:45.610Z,96010.17
2019-02-10T12:06:15.739Z,96021.53
2019-02-10T12:08:45.841Z,96001.44
2019-02-10T12:11:15.985Z,96017.10
2019-02-10T12:13:46.108Z,95998.85
2019-02-10T12:16:16.273Z,95993.48
2019-02-10T12:18:46.445Z,95974.41
2019-02-10T12:21:16.596Z,95987.86
2019-02-10T12:23:46.768Z,95971.09
2019-02-10T12:26:17.067Z,95983.84
2019-02-10T12:28:47.270Z,95988.73
2019-02-10T12:31:17.481Z,95975.50
2019-02-10T12:33:47.564Z,95978.34
2019-02-10T12:36:17.771Z,95994.41
2019-02-10T12:38:47.835Z,95994.98
2019-02-10T12:41:17.998Z,95987.17
2019-02-10T12:43:48.178Z,96005.77
2019-02-10T12:46:18.467Z,96002.35
2019-02-10T12:48:48.687Z,96000.70
2019-02-10T12:51:19.065Z,96001.11
2019-02-10T12:53:49.200Z,96012.72
2019-02-10T12:56:19.513Z,96028.71
2019-02-10T12:58:49.636Z,96034.50
2019-02-10T13:01:19.993Z,96032.73
2019-02-10T13:03:50.161Z,96038.16
2019-02-10T13:06:20.406Z,96048.17
2019-02-10T13:08:50.605Z,96031.08
2019-02-10T13:11:20.977Z,96035.77
2019-02-10T13:13:51.098Z,96025.97
2019-02-10T13:16:21.339Z,96038.69
2019-02-10T13:18:51.544Z,96021.39
2019-02-10T13:21:21.707Z,96015.29
2019-02-10T13:23:51.831Z,96018.27
2019-02-10T13:26:22.070Z,96000.09
2019-02-10T13:28:52.264Z,95991.22
2019-02-10T13:31:22.419Z,95987.17
2019-02-10T13:33:52.529Z,95992.09
2019-02-10T13:36:22.759Z,95984.22
2019-02-10T13:38:52.955Z,95974.44
2019-02-10T13:41:23.355Z,95965.94
2019-02-10T13:43:53.465Z,95974.88
2019-02-10T13:46:23.614Z,95954.38
2019-02-10T13:48:53.853Z,95955.89
2019-02-10T13:51:23.999Z,95946.10
2019-02-10T13:53:54.198Z,95949.07
2019-02-10T13:56:24.414Z,95934.03
2019-02-10T13:58:54.603Z,95943.06
2019-02-10T14:01:24.827Z,95936.28
2019-02-10T14:03:55.154Z,95943.72
2019-02-10T14:06:25.359Z,95932.08
2019-02-10T14:08:55.479Z,95933.14
2019-02-10T14:11:25.616Z,95932.47
2019-02-10T14:13:55.723Z,95939.86
2019-02-10T14:16:25.936Z,95938.30
2019-02-10T14:18:55.979Z,95944.41
2019-02-10T14:21:26.073Z,95922.69
2019-02-10T14:23:56.165Z,95930.61
2019-02-10T14:26:26.543Z,95925.53
2019-02-10T14:28:56.782Z,95927.85
2019-02-10T14:31:27.018Z,95924.94
2019-02-10T14:33:57.273Z,95927.81
2019-02-10T14:36:27.540Z,95916.41
2019-02-10T14:38:57.708Z,95930.02
2019-02-10T14:41:27.855Z,95932.66
2019-02-10T14:43:58.038Z,95916.29
2019-02-10T14:46:28.271Z,95912.34
2019-02-10T14:48:58.495Z,95915.53
2019-02-10T14:51:28.687Z,95902.57
2019-02-10T14:53:59.626Z,95879.50
2019-02-10T14:56:29.839Z,95880.56
2019-02-10T14:58:59.950Z,95891.43
2019-02-10T15:01:30.083Z,95886.95
2019-02-10T15:04:00.207Z,95895.45
2019-02-10T15:06:30.434Z,95896.28
2019-02-10T15:09:00.645Z,95889.19
2019-02-10T15:11:30.798Z,95888.36
2019-02-10T15:14:00.977Z,95893.17
2019-02-10T15:16:31.217Z,95892.86
2019-02-10T15:19:01.310Z,95888.66
2019-02-10T15:21:31.506Z,95901.02
2019-02-10T15:24:01.616Z,95908.52
2019-02-10T15:26:31.815Z,95904.00
2019-02-10T15:29:01.991Z,95910.63
2019-02-10T15:31:32.206Z,95933.87
2019-02-10T15:34:02.416Z,95937.25
2019-02-10T15:36:32.634Z,95943.14
2019-02-10T15:39:02.733Z,95943.69
2019-02-10T15:41:32.863Z,95963.60
2019-02-10T15:44:02.973Z,95964.42
2019-02-10T15:46:33.116Z,95968.13
2019-02-10T15:49:03.216Z,95972.12
2019-02-10T15:51:37.141Z,95978.20
2019-02-10T15:54:05.482Z,95993.84
2019-02-10T15:56:35.611Z,96002.31
2019-02-10T15:59:05.919Z,96009.48
2019-02-10T16:01:36.162Z,96031.23
2019-02-10T16:04:06.388Z,96037.56
2019-02-10T16:06:36.612Z,96037.41
2019-02-10T16:09:07.034Z,96060.56
2019-02-10T16:11:37.273Z,96071.97
2019-02-10T16:14:07.464Z,96082.58
2019-02-10T16:16:37.697Z,96088.10
2019-02-10T16:19:07.867Z,96096.55
2019-02-10T16:21:37.969Z,96105.50
2019-02-10T16:24:08.189Z,96096.51
2019-02-10T16:26:38.325Z,96105.51
2019-02-10T16:29:08.429Z,96102.88
2019-02-10T16:31:38.625Z,96086.20
2019-02-10T16:34:08.749Z,96088.62
2019-02-10T16:36:38.977Z,96093.36
2019-02-10T16:39:12.899Z,96102.88
2019-02-10T16:41:43.155Z,96121.39
2019-02-10T16:44:13.365Z,96124.33
2019-02-10T16:46:43.662Z,96132.00
2019-02-10T16:49:13.778Z,96162.14
2019-02-10T16:51:43.905Z,96158.67
2019-02-10T16:54:14.111Z,96180.99
2019-02-10T16:56:44.323Z,96171.66
2019-02-10T16:59:14.521Z,96163.78
2019-02-10T17:01:44.604Z,96169.46
2019-02-10T17:04:14.940Z,96171.48
2019-02-10T17:06:45.113Z,96178.80
2019-02-10T17:09:15.316Z,96179.90
2019-02-10T17:11:45.427Z,96195.38
2019-02-10T17:14:15.577Z,96203.91
2019-02-10T17:16:45.846Z,96193.59
2019-02-10T17:19:16.049Z,96226.56
2019-02-10T17:21:46.153Z,96244.50
2019-02-10T17:24:16.266Z,96250.50
2019-02-10T17:27:55.625Z,96241.80
2019-02-10T17:30:25.915Z,96259.14
2019-02-10T17:42:11.494Z,117075.01
2019-02-10T17:44:48.617Z,117075.01
2019-02-10T17:48:35.990Z,117075.01
2019-02-10T22:05:38.492Z,96690.88
2019-02-10T22:08:08.653Z,96716.69
2019-02-10T22:10:38.787Z,96695.98
2019-02-10T22:13:09.015Z,96711.03
2019-02-10T22:15:39.152Z,96706.13
2019-02-10T22:18:09.487Z,96708.58
2019-02-10T22:20:39.713Z,96722.23
2019-02-10T22:23:09.880Z,96722.74
2019-02-10T22:25:40.489Z,96721.61
2019-02-10T22:28:10.738Z,96727.98
2019-02-10T22:30:40.974Z,96727.03
2019-02-10T23:30:54.261Z,96724.39
2019-02-10T23:33:24.485Z,96724.39
2019-02-10T23:35:54.856Z,96835.70
2019-02-10T23:38:25.062Z,96850.53
2019-02-10T23:40:55.293Z,96855.13
2019-02-10T23:43:25.460Z,96858.49
2019-02-10T23:45:55.638Z,96862.06
2019-02-10T23:48:25.808Z,96869.29
2019-02-10T23:50:55.930Z,96870.83
2019-02-10T23:53:26.096Z,96877.24
2019-02-10T23:55:56.248Z,96884.48
2019-02-10T23:58:26.615Z,96874.48
